sensor_id;sensor_type;location;lat;lon;timestamp;temperature;humidity
70166;SHT30;57541;47.408;18.822;2022-11-06T00:00:29;9.57;98.58
70166;SHT30;57541;47.408;18.822;2022-11-06T00:01:11;9.50;98.48
70166;SHT30;57541;47.408;18.822;2022-11-06T00:01:43;9.50;98.64
70166;SHT30;57541;47.408;18.822;2022-11-06T00:02:14;9.48;98.59
70166;SHT30;57541;47.408;18.822;2022-11-06T00:02:51;9.51;98.48
70166;SHT30;57541;47.408;18.822;2022-11-06T00:03:22;9.55;98.59
70166;SHT30;57541;47.408;18.822;2022-11-06T00:03:54;9.61;98.59
70166;SHT30;57541;47.408;18.822;2022-11-06T00:04:28;9.58;98.43
70166;SHT30;57541;47.408;18.822;2022-11-06T00:05:00;9.57;98.57
70166;SHT30;57541;47.408;18.822;2022-11-06T00:05:51;9.52;98.45
70166;SHT30;57541;47.408;18.822;2022-11-06T00:06:41;9.50;98.67
70166;SHT30;57541;47.408;18.822;2022-11-06T00:07:18;9.48;98.58
70166;SHT30;57541;47.408;18.822;2022-11-06T00:07:50;9.50;98.61
70166;SHT30;57541;47.408;18.822;2022-11-06T00:08:27;9.44;98.53
70166;SHT30;57541;47.408;18.822;2022-11-06T00:09:00;9.45;98.67
70166;SHT30;57541;47.408;18.822;2022-11-06T00:09:33;9.48;98.68
70166;SHT30;57541;47.408;18.822;2022-11-06T00:10:05;9.50;98.57
70166;SHT30;57541;47.408;18.822;2022-11-06T00:10:36;9.52;98.55
70166;SHT30;57541;47.408;18.822;2022-11-06T00:11:10;9.50;98.50
70166;SHT30;57541;47.408;18.822;2022-11-06T00:11:42;9.51;98.67
70166;SHT30;57541;47.408;18.822;2022-11-06T00:12:14;9.50;98.63
70166;SHT30;57541;47.408;18.822;2022-11-06T00:12:46;9.51;98.55
70166;SHT30;57541;47.408;18.822;2022-11-06T00:13:18;9.48;98.46
70166;SHT30;57541;47.408;18.822;2022-11-06T00:13:49;9.48;98.52
70166;SHT30;57541;47.408;18.822;2022-11-06T00:14:22;9.47;98.60
70166;SHT30;57541;47.408;18.822;2022-11-06T00:14:54;9.44;98.73
70166;SHT30;57541;47.408;18.822;2022-11-06T00:15:26;9.44;98.77
70166;SHT30;57541;47.408;18.822;2022-11-06T00:16:01;9.52;98.63
70166;SHT30;57541;47.408;18.822;2022-11-06T00:16:35;9.50;98.61
70166;SHT30;57541;47.408;18.822;2022-11-06T00:17:06;9.51;98.64
70166;SHT30;57541;47.408;18.822;2022-11-06T00:17:38;9.51;98.54
70166;SHT30;57541;47.408;18.822;2022-11-06T00:18:10;9.55;98.54
70166;SHT30;57541;47.408;18.822;2022-11-06T00:18:42;9.62;98.58
70166;SHT30;57541;47.408;18.822;2022-11-06T00:19:14;9.61;98.50
70166;SHT30;57541;47.408;18.822;2022-11-06T00:19:46;9.54;98.41
70166;SHT30;57541;47.408;18.822;2022-11-06T00:20:18;9.55;98.46
70166;SHT30;57541;47.408;18.822;2022-11-06T00:20:49;9.55;98.39
70166;SHT30;57541;47.408;18.822;2022-11-06T00:21:24;9.57;98.66
70166;SHT30;57541;47.408;18.822;2022-11-06T00:21:56;9.59;98.50
70166;SHT30;57541;47.408;18.822;2022-11-06T00:22:27;9.64;98.59
70166;SHT30;57541;47.408;18.822;2022-11-06T00:23:02;9.58;98.52
70166;SHT30;57541;47.408;18.822;2022-11-06T00:23:34;9.59;98.50
70166;SHT30;57541;47.408;18.822;2022-11-06T00:24:06;9.61;98.46
70166;SHT30;57541;47.408;18.822;2022-11-06T00:24:38;9.62;98.51
70166;SHT30;57541;47.408;18.822;2022-11-06T00:25:10;9.64;98.37
70166;SHT30;57541;47.408;18.822;2022-11-06T00:25:41;9.59;98.57
70166;SHT30;57541;47.408;18.822;2022-11-06T00:26:15;9.64;98.45
70166;SHT30;57541;47.408;18.822;2022-11-06T00:26:47;9.62;98.30
70166;SHT30;57541;47.408;18.822;2022-11-06T00:27:24;9.55;98.40
70166;SHT30;57541;47.408;18.822;2022-11-06T00:27:56;9.57;98.55
70166;SHT30;57541;47.408;18.822;2022-11-06T00:28:28;9.55;98.54
70166;SHT30;57541;47.408;18.822;2022-11-06T00:28:59;9.59;98.44
70166;SHT30;57541;47.408;18.822;2022-11-06T00:29:31;9.57;98.65
70166;SHT30;57541;47.408;18.822;2022-11-06T00:30:05;9.58;98.73
70166;SHT30;57541;47.408;18.822;2022-11-06T00:30:37;9.58;98.70
70166;SHT30;57541;47.408;18.822;2022-11-06T00:31:11;9.61;98.81
70166;SHT30;57541;47.408;18.822;2022-11-06T00:31:43;9.55;98.63
70166;SHT30;57541;47.408;18.822;2022-11-06T00:32:14;9.59;98.57
70166;SHT30;57541;47.408;18.822;2022-11-06T00:32:46;9.58;98.51
70166;SHT30;57541;47.408;18.822;2022-11-06T00:33:18;9.55;98.49
70166;SHT30;57541;47.408;18.822;2022-11-06T00:33:50;9.57;98.50
70166;SHT30;57541;47.408;18.822;2022-11-06T00:34:22;9.57;98.67
70166;SHT30;57541;47.408;18.822;2022-11-06T00:34:54;9.48;98.65
70166;SHT30;57541;47.408;18.822;2022-11-06T00:35:25;9.50;98.69
70166;SHT30;57541;47.408;18.822;2022-11-06T00:35:57;9.51;98.51
70166;SHT30;57541;47.408;18.822;2022-11-06T00:36:29;9.59;98.71
70166;SHT30;57541;47.408;18.822;2022-11-06T00:37:01;9.55;98.49
70166;SHT30;57541;47.408;18.822;2022-11-06T00:37:33;9.62;98.59
70166;SHT30;57541;47.408;18.822;2022-11-06T00:38:05;9.59;98.62
70166;SHT30;57541;47.408;18.822;2022-11-06T00:38:37;9.58;98.52
70166;SHT30;57541;47.408;18.822;2022-11-06T00:39:09;9.54;98.49
70166;SHT30;57541;47.408;18.822;2022-11-06T00:39:41;9.52;98.72
70166;SHT30;57541;47.408;18.822;2022-11-06T00:40:12;9.52;98.49
70166;SHT30;57541;47.408;18.822;2022-11-06T00:40:44;9.52;98.60
70166;SHT30;57541;47.408;18.822;2022-11-06T00:41:16;9.52;98.63
70166;SHT30;57541;47.408;18.822;2022-11-06T00:41:48;9.50;98.56
70166;SHT30;57541;47.408;18.822;2022-11-06T00:42:19;9.50;98.57
70166;SHT30;57541;47.408;18.822;2022-11-06T00:42:53;9.50;98.70
70166;SHT30;57541;47.408;18.822;2022-11-06T00:43:24;9.50;98.73
70166;SHT30;57541;47.408;18.822;2022-11-06T00:43:58;9.51;98.67
70166;SHT30;57541;47.408;18.822;2022-11-06T00:44:30;9.48;98.60
70166;SHT30;57541;47.408;18.822;2022-11-06T00:45:02;9.50;98.65
70166;SHT30;57541;47.408;18.822;2022-11-06T00:45:33;9.54;98.76
70166;SHT30;57541;47.408;18.822;2022-11-06T00:46:07;9.55;98.59
70166;SHT30;57541;47.408;18.822;2022-11-06T00:46:39;9.57;98.52
70166;SHT30;57541;47.408;18.822;2022-11-06T00:47:11;9.57;98.69
70166;SHT30;57541;47.408;18.822;2022-11-06T00:47:42;9.55;98.59
70166;SHT30;57541;47.408;18.822;2022-11-06T00:48:14;9.57;98.74
70166;SHT30;57541;47.408;18.822;2022-11-06T00:48:46;9.51;98.67
70166;SHT30;57541;47.408;18.822;2022-11-06T00:49:17;9.54;98.80
70166;SHT30;57541;47.408;18.822;2022-11-06T00:49:49;9.50;98.66
70166;SHT30;57541;47.408;18.822;2022-11-06T00:50:21;9.52;98.50
70166;SHT30;57541;47.408;18.822;2022-11-06T00:51:03;9.50;98.70
70166;SHT30;57541;47.408;18.822;2022-11-06T00:51:36;9.50;98.36
70166;SHT30;57541;47.408;18.822;2022-11-06T00:52:09;9.52;98.47
70166;SHT30;57541;47.408;18.822;2022-11-06T00:52:41;9.52;98.41
70166;SHT30;57541;47.408;18.822;2022-11-06T00:53:12;9.51;98.52
70166;SHT30;57541;47.408;18.822;2022-11-06T00:53:44;9.51;98.33
70166;SHT30;57541;47.408;18.822;2022-11-06T00:54:17;9.51;98.53
70166;SHT30;57541;47.408;18.822;2022-11-06T00:54:48;9.57;98.51
70166;SHT30;57541;47.408;18.822;2022-11-06T00:55:20;9.52;98.64
70166;SHT30;57541;47.408;18.822;2022-11-06T00:55:51;9.45;98.50
70166;SHT30;57541;47.408;18.822;2022-11-06T00:56:24;9.47;98.56
70166;SHT30;57541;47.408;18.822;2022-11-06T00:56:56;9.48;98.68
70166;SHT30;57541;47.408;18.822;2022-11-06T00:57:27;9.54;98.49
70166;SHT30;57541;47.408;18.822;2022-11-06T00:57:59;9.48;98.53
70166;SHT30;57541;47.408;18.822;2022-11-06T00:58:30;9.51;98.57
70166;SHT30;57541;47.408;18.822;2022-11-06T00:59:05;9.54;98.72
70166;SHT30;57541;47.408;18.822;2022-11-06T00:59:37;9.54;98.66
70166;SHT30;57541;47.408;18.822;2022-11-06T01:00:09;9.52;98.67
70166;SHT30;57541;47.408;18.822;2022-11-06T01:00:41;9.51;98.61
70166;SHT30;57541;47.408;18.822;2022-11-06T01:01:15;9.48;98.54
70166;SHT30;57541;47.408;18.822;2022-11-06T01:01:47;9.47;98.59
70166;SHT30;57541;47.408;18.822;2022-11-06T01:02:19;9.54;98.66
70166;SHT30;57541;47.408;18.822;2022-11-06T01:02:51;9.55;98.64
70166;SHT30;57541;47.408;18.822;2022-11-06T01:03:23;9.52;98.56
70166;SHT30;57541;47.408;18.822;2022-11-06T01:03:57;9.52;98.46
70166;SHT30;57541;47.408;18.822;2022-11-06T01:04:29;9.54;98.41
70166;SHT30;57541;47.408;18.822;2022-11-06T01:05:00;9.54;98.45
70166;SHT30;57541;47.408;18.822;2022-11-06T01:05:32;9.55;98.52
70166;SHT30;57541;47.408;18.822;2022-11-06T01:06:09;9.55;98.67
70166;SHT30;57541;47.408;18.822;2022-11-06T01:06:46;9.57;98.35
70166;SHT30;57541;47.408;18.822;2022-11-06T01:07:17;9.58;98.43
70166;SHT30;57541;47.408;18.822;2022-11-06T01:07:49;9.57;98.53
70166;SHT30;57541;47.408;18.822;2022-11-06T01:08:21;9.55;98.40
70166;SHT30;57541;47.408;18.822;2022-11-06T01:08:52;9.57;98.49
70166;SHT30;57541;47.408;18.822;2022-11-06T01:09:26;9.55;98.47
70166;SHT30;57541;47.408;18.822;2022-11-06T01:09:58;9.54;98.43
70166;SHT30;57541;47.408;18.822;2022-11-06T01:10:29;9.58;98.75
70166;SHT30;57541;47.408;18.822;2022-11-06T01:11:11;9.57;98.44
70166;SHT30;57541;47.408;18.822;2022-11-06T01:11:46;9.57;98.51
70166;SHT30;57541;47.408;18.822;2022-11-06T01:12:37;9.58;98.43
70166;SHT30;57541;47.408;18.822;2022-11-06T01:13:09;9.55;98.63
70166;SHT30;57541;47.408;18.822;2022-11-06T01:13:41;9.61;98.56
70166;SHT30;57541;47.408;18.822;2022-11-06T01:14:15;9.61;98.50
70166;SHT30;57541;47.408;18.822;2022-11-06T01:14:46;9.57;98.34
70166;SHT30;57541;47.408;18.822;2022-11-06T01:15:18;9.58;98.40
70166;SHT30;57541;47.408;18.822;2022-11-06T01:15:50;9.58;98.53
70166;SHT30;57541;47.408;18.822;2022-11-06T01:16:22;9.54;98.47
70166;SHT30;57541;47.408;18.822;2022-11-06T01:16:54;9.52;98.49
70166;SHT30;57541;47.408;18.822;2022-11-06T01:17:26;9.54;98.60
70166;SHT30;57541;47.408;18.822;2022-11-06T01:17:59;9.58;98.64
70166;SHT30;57541;47.408;18.822;2022-11-06T01:18:30;9.57;98.58
70166;SHT30;57541;47.408;18.822;2022-11-06T01:19:02;9.57;98.57
70166;SHT30;57541;47.408;18.822;2022-11-06T01:19:34;9.52;98.44
70166;SHT30;57541;47.408;18.822;2022-11-06T01:20:06;9.48;98.46
70166;SHT30;57541;47.408;18.822;2022-11-06T01:20:38;9.58;98.49
70166;SHT30;57541;47.408;18.822;2022-11-06T01:21:18;9.58;98.48
70166;SHT30;57541;47.408;18.822;2022-11-06T01:21:51;9.57;98.55
70166;SHT30;57541;47.408;18.822;2022-11-06T01:22:23;9.55;98.62
70166;SHT30;57541;47.408;18.822;2022-11-06T01:22:55;9.64;98.73
70166;SHT30;57541;47.408;18.822;2022-11-06T01:23:26;9.59;98.63
70166;SHT30;57541;47.408;18.822;2022-11-06T01:24:00;9.59;98.41
70166;SHT30;57541;47.408;18.822;2022-11-06T01:24:31;9.61;98.44
70166;SHT30;57541;47.408;18.822;2022-11-06T01:25:04;9.57;98.50
70166;SHT30;57541;47.408;18.822;2022-11-06T01:25:35;9.57;98.36
70166;SHT30;57541;47.408;18.822;2022-11-06T01:26:08;9.55;98.47
70166;SHT30;57541;47.408;18.822;2022-11-06T01:26:41;9.54;98.49
70166;SHT30;57541;47.408;18.822;2022-11-06T01:27:33;9.59;98.76
70166;SHT30;57541;47.408;18.822;2022-11-06T01:28:04;9.61;98.47
70166;SHT30;57541;47.408;18.822;2022-11-06T01:28:37;9.58;98.51
70166;SHT30;57541;47.408;18.822;2022-11-06T01:29:11;9.61;98.71
70166;SHT30;57541;47.408;18.822;2022-11-06T01:29:43;9.59;98.51
70166;SHT30;57541;47.408;18.822;2022-11-06T01:30:15;9.58;98.50
70166;SHT30;57541;47.408;18.822;2022-11-06T01:30:47;9.57;98.63
70166;SHT30;57541;47.408;18.822;2022-11-06T01:31:20;9.61;98.62
70166;SHT30;57541;47.408;18.822;2022-11-06T01:31:52;9.58;98.53
70166;SHT30;57541;47.408;18.822;2022-11-06T01:32:24;9.61;98.67
70166;SHT30;57541;47.408;18.822;2022-11-06T01:32:55;9.62;98.70
70166;SHT30;57541;47.408;18.822;2022-11-06T01:33:27;9.62;98.62
70166;SHT30;57541;47.408;18.822;2022-11-06T01:34:00;9.64;98.51
70166;SHT30;57541;47.408;18.822;2022-11-06T01:34:31;9.65;98.47
70166;SHT30;57541;47.408;18.822;2022-11-06T01:35:03;9.62;98.45
70166;SHT30;57541;47.408;18.822;2022-11-06T01:35:35;9.65;98.51
70166;SHT30;57541;47.408;18.822;2022-11-06T01:36:11;9.61;98.44
70166;SHT30;57541;47.408;18.822;2022-11-06T01:36:44;9.62;98.43
70166;SHT30;57541;47.408;18.822;2022-11-06T01:37:17;9.62;98.53
70166;SHT30;57541;47.408;18.822;2022-11-06T01:37:48;9.68;98.53
70166;SHT30;57541;47.408;18.822;2022-11-06T01:38:20;9.57;98.51
70166;SHT30;57541;47.408;18.822;2022-11-06T01:38:54;9.59;98.58
70166;SHT30;57541;47.408;18.822;2022-11-06T01:39:26;9.61;98.60
70166;SHT30;57541;47.408;18.822;2022-11-06T01:39:58;9.57;98.57
70166;SHT30;57541;47.408;18.822;2022-11-06T01:40:29;9.59;98.54
70166;SHT30;57541;47.408;18.822;2022-11-06T01:41:01;9.61;98.51
70166;SHT30;57541;47.408;18.822;2022-11-06T01:41:36;9.59;98.57
70166;SHT30;57541;47.408;18.822;2022-11-06T01:42:10;9.57;98.58
70166;SHT30;57541;47.408;18.822;2022-11-06T01:42:42;9.62;98.57
70166;SHT30;57541;47.408;18.822;2022-11-06T01:43:22;9.62;98.46
70166;SHT30;57541;47.408;18.822;2022-11-06T01:44:00;9.65;98.38
70166;SHT30;57541;47.408;18.822;2022-11-06T01:45:52;9.67;98.51
70166;SHT30;57541;47.408;18.822;2022-11-06T01:46:33;9.59;98.34
70166;SHT30;57541;47.408;18.822;2022-11-06T01:47:20;9.59;98.35
70166;SHT30;57541;47.408;18.822;2022-11-06T01:47:52;9.57;98.63
70166;SHT30;57541;47.408;18.822;2022-11-06T01:48:25;9.55;98.53
70166;SHT30;57541;47.408;18.822;2022-11-06T01:49:33;9.55;98.43
70166;SHT30;57541;47.408;18.822;2022-11-06T01:50:07;9.55;98.46
70166;SHT30;57541;47.408;18.822;2022-11-06T01:50:42;9.55;98.51
70166;SHT30;57541;47.408;18.822;2022-11-06T01:51:14;9.59;98.51
70166;SHT30;57541;47.408;18.822;2022-11-06T01:51:55;9.67;98.54
70166;SHT30;57541;47.408;18.822;2022-11-06T01:52:29;9.64;98.39
70166;SHT30;57541;47.408;18.822;2022-11-06T01:53:03;9.62;98.48
70166;SHT30;57541;47.408;18.822;2022-11-06T01:53:36;9.61;98.51
70166;SHT30;57541;47.408;18.822;2022-11-06T01:54:07;9.61;98.47
70166;SHT30;57541;47.408;18.822;2022-11-06T01:54:42;9.59;98.42
70166;SHT30;57541;47.408;18.822;2022-11-06T01:55:23;9.58;98.58
70166;SHT30;57541;47.408;18.822;2022-11-06T01:55:59;9.61;98.50
70166;SHT30;57541;47.408;18.822;2022-11-06T01:56:31;9.64;98.44
70166;SHT30;57541;47.408;18.822;2022-11-06T01:57:03;9.61;98.65
70166;SHT30;57541;47.408;18.822;2022-11-06T01:57:35;9.58;98.60
70166;SHT30;57541;47.408;18.822;2022-11-06T01:58:10;9.55;98.65
70166;SHT30;57541;47.408;18.822;2022-11-06T01:58:45;9.61;98.74
70166;SHT30;57541;47.408;18.822;2022-11-06T01:59:21;9.58;98.64
70166;SHT30;57541;47.408;18.822;2022-11-06T01:59:53;9.61;98.57
70166;SHT30;57541;47.408;18.822;2022-11-06T02:01:06;9.58;98.68
70166;SHT30;57541;47.408;18.822;2022-11-06T02:01:38;9.54;98.60
70166;SHT30;57541;47.408;18.822;2022-11-06T02:02:10;9.57;98.76
70166;SHT30;57541;47.408;18.822;2022-11-06T02:02:42;9.62;98.51
70166;SHT30;57541;47.408;18.822;2022-11-06T02:03:14;9.57;98.60
70166;SHT30;57541;47.408;18.822;2022-11-06T02:03:53;9.57;98.61
70166;SHT30;57541;47.408;18.822;2022-11-06T02:04:36;9.59;98.50
70166;SHT30;57541;47.408;18.822;2022-11-06T02:05:08;9.61;98.68
70166;SHT30;57541;47.408;18.822;2022-11-06T02:05:40;9.62;98.59
70166;SHT30;57541;47.408;18.822;2022-11-06T02:06:12;9.61;98.52
70166;SHT30;57541;47.408;18.822;2022-11-06T02:06:45;9.62;98.64
70166;SHT30;57541;47.408;18.822;2022-11-06T02:07:17;9.58;98.63
70166;SHT30;57541;47.408;18.822;2022-11-06T02:07:51;9.61;98.62
70166;SHT30;57541;47.408;18.822;2022-11-06T02:08:24;9.55;98.62
70166;SHT30;57541;47.408;18.822;2022-11-06T02:08:56;9.58;98.70
70166;SHT30;57541;47.408;18.822;2022-11-06T02:09:29;9.58;98.66
70166;SHT30;57541;47.408;18.822;2022-11-06T02:10:02;9.59;98.62
70166;SHT30;57541;47.408;18.822;2022-11-06T02:10:34;9.58;98.66
70166;SHT30;57541;47.408;18.822;2022-11-06T02:11:06;9.55;98.58
70166;SHT30;57541;47.408;18.822;2022-11-06T02:11:40;9.61;98.65
70166;SHT30;57541;47.408;18.822;2022-11-06T02:20:07;9.61;98.68
70166;SHT30;57541;47.408;18.822;2022-11-06T02:21:07;9.58;98.80
70166;SHT30;57541;47.408;18.822;2022-11-06T02:23:52;9.65;98.64
70166;SHT30;57541;47.408;18.822;2022-11-06T02:24:46;9.67;98.59
70166;SHT30;57541;47.408;18.822;2022-11-06T02:25:42;9.67;98.65
70166;SHT30;57541;47.408;18.822;2022-11-06T02:27:27;9.61;98.57
70166;SHT30;57541;47.408;18.822;2022-11-06T02:28:10;9.65;98.59
70166;SHT30;57541;47.408;18.822;2022-11-06T02:28:53;9.67;98.57
70166;SHT30;57541;47.408;18.822;2022-11-06T02:29:33;9.67;98.74
70166;SHT30;57541;47.408;18.822;2022-11-06T02:30:10;9.71;98.62
70166;SHT30;57541;47.408;18.822;2022-11-06T02:30:45;9.68;98.50
70166;SHT30;57541;47.408;18.822;2022-11-06T02:31:23;9.67;98.55
70166;SHT30;57541;47.408;18.822;2022-11-06T02:31:58;9.65;98.51
70166;SHT30;57541;47.408;18.822;2022-11-06T02:32:53;9.62;98.49
70166;SHT30;57541;47.408;18.822;2022-11-06T02:33:46;9.58;98.50
70166;SHT30;57541;47.408;18.822;2022-11-06T02:34:22;9.59;98.64
70166;SHT30;57541;47.408;18.822;2022-11-06T02:34:55;9.59;98.61
70166;SHT30;57541;47.408;18.822;2022-11-06T02:35:36;9.54;98.44
70166;SHT30;57541;47.408;18.822;2022-11-06T02:36:12;9.54;98.80
70166;SHT30;57541;47.408;18.822;2022-11-06T02:37:03;9.55;98.60
70166;SHT30;57541;47.408;18.822;2022-11-06T02:37:40;9.59;98.62
70166;SHT30;57541;47.408;18.822;2022-11-06T02:38:19;9.61;98.56
70166;SHT30;57541;47.408;18.822;2022-11-06T02:39:02;9.59;98.64
70166;SHT30;57541;47.408;18.822;2022-11-06T02:39:37;9.61;98.62
70166;SHT30;57541;47.408;18.822;2022-11-06T02:40:11;9.62;98.61
70166;SHT30;57541;47.408;18.822;2022-11-06T02:40:51;9.65;98.71
70166;SHT30;57541;47.408;18.822;2022-11-06T02:41:28;9.64;98.59
70166;SHT30;57541;47.408;18.822;2022-11-06T02:42:02;9.61;98.70
70166;SHT30;57541;47.408;18.822;2022-11-06T02:42:37;9.58;98.49
70166;SHT30;57541;47.408;18.822;2022-11-06T02:43:12;9.64;98.68
70166;SHT30;57541;47.408;18.822;2022-11-06T02:43:48;9.61;98.59
70166;SHT30;57541;47.408;18.822;2022-11-06T02:44:23;9.61;98.66
70166;SHT30;57541;47.408;18.822;2022-11-06T02:44:56;9.65;98.80
70166;SHT30;57541;47.408;18.822;2022-11-06T02:45:30;9.61;98.72
70166;SHT30;57541;47.408;18.822;2022-11-06T02:46:17;9.64;98.54
70166;SHT30;57541;47.408;18.822;2022-11-06T02:46:54;9.61;98.49
70166;SHT30;57541;47.408;18.822;2022-11-06T02:47:28;9.62;98.53
70166;SHT30;57541;47.408;18.822;2022-11-06T02:48:03;9.58;98.57
70166;SHT30;57541;47.408;18.822;2022-11-06T02:48:40;9.61;98.65
70166;SHT30;57541;47.408;18.822;2022-11-06T02:49:18;9.61;98.52
70166;SHT30;57541;47.408;18.822;2022-11-06T02:49:56;9.64;98.52
70166;SHT30;57541;47.408;18.822;2022-11-06T02:50:33;9.64;98.66
70166;SHT30;57541;47.408;18.822;2022-11-06T02:51:08;9.65;98.71
70166;SHT30;57541;47.408;18.822;2022-11-06T02:51:45;9.64;98.72
70166;SHT30;57541;47.408;18.822;2022-11-06T02:52:24;9.64;98.62
70166;SHT30;57541;47.408;18.822;2022-11-06T02:53:07;9.59;98.70
70166;SHT30;57541;47.408;18.822;2022-11-06T02:53:41;9.64;98.68
70166;SHT30;57541;47.408;18.822;2022-11-06T02:54:14;9.67;98.72
70166;SHT30;57541;47.408;18.822;2022-11-06T02:54:58;9.67;98.54
70166;SHT30;57541;47.408;18.822;2022-11-06T02:55:36;9.68;98.56
70166;SHT30;57541;47.408;18.822;2022-11-06T02:56:11;9.64;98.58
70166;SHT30;57541;47.408;18.822;2022-11-06T02:56:45;9.61;98.62
70166;SHT30;57541;47.408;18.822;2022-11-06T02:57:21;9.58;98.77
70166;SHT30;57541;47.408;18.822;2022-11-06T02:57:58;9.61;98.87
70166;SHT30;57541;47.408;18.822;2022-11-06T02:58:38;9.59;98.69
70166;SHT30;57541;47.408;18.822;2022-11-06T03:00:14;9.59;98.70
70166;SHT30;57541;47.408;18.822;2022-11-06T03:00:52;9.58;98.78
70166;SHT30;57541;47.408;18.822;2022-11-06T03:01:33;9.58;98.73
70166;SHT30;57541;47.408;18.822;2022-11-06T03:02:08;9.59;98.95
70166;SHT30;57541;47.408;18.822;2022-11-06T03:03:04;9.61;98.72
70166;SHT30;57541;47.408;18.822;2022-11-06T03:03:40;9.61;98.77
70166;SHT30;57541;47.408;18.822;2022-11-06T03:04:40;9.65;98.73
70166;SHT30;57541;47.408;18.822;2022-11-06T03:05:19;9.68;98.81
70166;SHT30;57541;47.408;18.822;2022-11-06T03:05:58;9.61;98.72
70166;SHT30;57541;47.408;18.822;2022-11-06T03:06:56;9.62;98.83
70166;SHT30;57541;47.408;18.822;2022-11-06T03:07:34;9.61;98.71
70166;SHT30;57541;47.408;18.822;2022-11-06T03:08:52;9.62;98.74
70166;SHT30;57541;47.408;18.822;2022-11-06T03:09:28;9.59;98.87
70166;SHT30;57541;47.408;18.822;2022-11-06T03:10:03;9.59;98.73
70166;SHT30;57541;47.408;18.822;2022-11-06T03:10:42;9.64;98.70
70166;SHT30;57541;47.408;18.822;2022-11-06T03:11:19;9.64;98.68
70166;SHT30;57541;47.408;18.822;2022-11-06T03:12:57;9.64;98.80
70166;SHT30;57541;47.408;18.822;2022-11-06T03:13:47;9.65;98.71
70166;SHT30;57541;47.408;18.822;2022-11-06T03:15:27;9.61;98.85
70166;SHT30;57541;47.408;18.822;2022-11-06T03:16:10;9.59;98.72
70166;SHT30;57541;47.408;18.822;2022-11-06T03:16:56;9.58;98.86
70166;SHT30;57541;47.408;18.822;2022-11-06T03:17:38;9.57;98.83
70166;SHT30;57541;47.408;18.822;2022-11-06T03:18:22;9.59;98.89
70166;SHT30;57541;47.408;18.822;2022-11-06T03:19:02;9.59;98.85
70166;SHT30;57541;47.408;18.822;2022-11-06T03:20:20;9.57;98.78
70166;SHT30;57541;47.408;18.822;2022-11-06T03:21:04;9.58;98.83
70166;SHT30;57541;47.408;18.822;2022-11-06T03:21:38;9.59;98.87
70166;SHT30;57541;47.408;18.822;2022-11-06T03:22:34;9.58;98.70
70166;SHT30;57541;47.408;18.822;2022-11-06T03:23:14;9.62;98.77
70166;SHT30;57541;47.408;18.822;2022-11-06T03:23:51;9.67;98.69
70166;SHT30;57541;47.408;18.822;2022-11-06T03:25:21;9.59;98.73
70166;SHT30;57541;47.408;18.822;2022-11-06T03:26:54;9.68;98.62
70166;SHT30;57541;47.408;18.822;2022-11-06T03:27:15;9.65;98.73
70166;SHT30;57541;47.408;18.822;2022-11-06T03:28:36;9.64;98.64
70166;SHT30;57541;47.408;18.822;2022-11-06T03:30:08;9.64;98.65
70166;SHT30;57541;47.408;18.822;2022-11-06T03:30:53;9.59;98.70
70166;SHT30;57541;47.408;18.822;2022-11-06T03:31:32;9.59;98.74
70166;SHT30;57541;47.408;18.822;2022-11-06T03:33:01;9.64;98.64
70166;SHT30;57541;47.408;18.822;2022-11-06T03:33:46;9.65;98.52
70166;SHT30;57541;47.408;18.822;2022-11-06T03:34:26;9.65;98.59
70166;SHT30;57541;47.408;18.822;2022-11-06T03:35:05;9.68;98.63
70166;SHT30;57541;47.408;18.822;2022-11-06T03:36:24;9.67;98.75
70166;SHT30;57541;47.408;18.822;2022-11-06T03:37:13;9.67;98.60
70166;SHT30;57541;47.408;18.822;2022-11-06T03:38:22;9.71;98.79
70166;SHT30;57541;47.408;18.822;2022-11-06T03:39:00;9.65;98.76
70166;SHT30;57541;47.408;18.822;2022-11-06T03:39:37;9.67;98.59
70166;SHT30;57541;47.408;18.822;2022-11-06T03:40:13;9.58;98.60
70166;SHT30;57541;47.408;18.822;2022-11-06T03:40:50;9.64;98.65
70166;SHT30;57541;47.408;18.822;2022-11-06T03:41:51;9.64;98.57
70166;SHT30;57541;47.408;18.822;2022-11-06T03:42:26;9.67;98.69
70166;SHT30;57541;47.408;18.822;2022-11-06T03:43:01;9.62;98.67
70166;SHT30;57541;47.408;18.822;2022-11-06T03:43:35;9.65;98.76
70166;SHT30;57541;47.408;18.822;2022-11-06T03:44:10;9.61;98.72
70166;SHT30;57541;47.408;18.822;2022-11-06T03:44:47;9.58;98.71
70166;SHT30;57541;47.408;18.822;2022-11-06T03:45:23;9.64;98.84
70166;SHT30;57541;47.408;18.822;2022-11-06T03:45:55;9.57;98.63
70166;SHT30;57541;47.408;18.822;2022-11-06T03:46:29;9.59;98.78
70166;SHT30;57541;47.408;18.822;2022-11-06T03:47:10;9.64;98.84
70166;SHT30;57541;47.408;18.822;2022-11-06T03:47:51;9.65;98.78
70166;SHT30;57541;47.408;18.822;2022-11-06T03:48:41;9.71;98.70
70166;SHT30;57541;47.408;18.822;2022-11-06T03:49:19;9.62;98.69
70166;SHT30;57541;47.408;18.822;2022-11-06T03:50:06;9.67;98.74
70166;SHT30;57541;47.408;18.822;2022-11-06T03:50:43;9.67;98.77
70166;SHT30;57541;47.408;18.822;2022-11-06T03:51:42;9.64;98.79
70166;SHT30;57541;47.408;18.822;2022-11-06T03:52:15;9.61;98.81
70166;SHT30;57541;47.408;18.822;2022-11-06T03:52:53;9.68;98.89
70166;SHT30;57541;47.408;18.822;2022-11-06T03:54:03;9.65;98.90
70166;SHT30;57541;47.408;18.822;2022-11-06T03:54:45;9.68;98.83
70166;SHT30;57541;47.408;18.822;2022-11-06T03:55:25;9.70;98.75
70166;SHT30;57541;47.408;18.822;2022-11-06T03:56:05;9.72;98.73
70166;SHT30;57541;47.408;18.822;2022-11-06T03:56:53;9.67;98.66
70166;SHT30;57541;47.408;18.822;2022-11-06T03:57:39;9.67;98.74
70166;SHT30;57541;47.408;18.822;2022-11-06T03:58:17;9.67;98.73
70166;SHT30;57541;47.408;18.822;2022-11-06T03:58:49;9.64;98.62
70166;SHT30;57541;47.408;18.822;2022-11-06T03:59:25;9.61;98.70
70166;SHT30;57541;47.408;18.822;2022-11-06T04:00:01;9.64;98.73
70166;SHT30;57541;47.408;18.822;2022-11-06T04:00:35;9.62;98.79
70166;SHT30;57541;47.408;18.822;2022-11-06T04:01:10;9.68;98.80
70166;SHT30;57541;47.408;18.822;2022-11-06T04:01:44;9.65;98.87
70166;SHT30;57541;47.408;18.822;2022-11-06T04:02:18;9.64;98.68
70166;SHT30;57541;47.408;18.822;2022-11-06T04:02:56;9.61;98.76
70166;SHT30;57541;47.408;18.822;2022-11-06T04:03:42;9.57;98.89
70166;SHT30;57541;47.408;18.822;2022-11-06T04:04:20;9.64;98.87
70166;SHT30;57541;47.408;18.822;2022-11-06T04:04:59;9.57;98.86
70166;SHT30;57541;47.408;18.822;2022-11-06T04:06:01;9.58;98.86
70166;SHT30;57541;47.408;18.822;2022-11-06T04:06:47;9.57;98.91
70166;SHT30;57541;47.408;18.822;2022-11-06T04:07:26;9.57;98.87
70166;SHT30;57541;47.408;18.822;2022-11-06T04:07:59;9.54;98.95
70166;SHT30;57541;47.408;18.822;2022-11-06T04:08:51;9.58;99.03
70166;SHT30;57541;47.408;18.822;2022-11-06T04:09:46;9.61;98.95
70166;SHT30;57541;47.408;18.822;2022-11-06T04:10:42;9.59;98.86